sensor_id;sensor_type;location;lat;lon;timestamp;P1;durP1;ratioP1;P2;durP2;ratioP2
55497;SDS011;41357;52.806;18.268;2024-02-23T00:01:39;15.60;;;7.72;;
55497;SDS011;41357;52.806;18.268;2024-02-23T00:04:05;14.77;;;6.93;;
55497;SDS011;41357;52.806;18.268;2024-02-23T00:06:33;11.93;;;5.68;;
55497;SDS011;41357;52.806;18.268;2024-02-23T00:09:00;11.73;;;6.57;;
55497;SDS011;41357;52.806;18.268;2024-02-23T00:11:26;12.43;;;6.22;;
55497;SDS011;41357;52.806;18.268;2024-02-23T00:13:55;13.68;;;7.18;;
55497;SDS011;41357;52.806;18.268;2024-02-23T00:16:21;15.13;;;7.47;;
55497;SDS011;41357;52.806;18.268;2024-02-23T00:18:47;13.77;;;6.53;;
55497;SDS011;41357;52.806;18.268;2024-02-23T00:21:14;14.00;;;6.78;;
55497;SDS011;41357;52.806;18.268;2024-02-23T00:23:40;10.38;;;5.43;;
55497;SDS011;41357;52.806;18.268;2024-02-23T00:26:07;13.25;;;6.07;;
55497;SDS011;41357;52.806;18.268;2024-02-23T00:28:33;10.13;;;6.50;;
55497;SDS011;41357;52.806;18.268;2024-02-23T00:31:00;14.57;;;7.25;;
55497;SDS011;41357;52.806;18.268;2024-02-23T00:33:26;13.30;;;6.10;;
55497;SDS011;41357;52.806;18.268;2024-02-23T00:35:52;13.57;;;6.07;;
55497;SDS011;41357;52.806;18.268;2024-02-23T00:38:18;11.38;;;6.00;;
55497;SDS011;41357;52.806;18.268;2024-02-23T00:40:45;9.40;;;5.00;;
55497;SDS011;41357;52.806;18.268;2024-02-23T00:43:11;13.43;;;6.97;;
55497;SDS011;41357;52.806;18.268;2024-02-23T00:45:37;13.75;;;6.30;;
55497;SDS011;41357;52.806;18.268;2024-02-23T00:48:03;9.40;;;5.35;;
55497;SDS011;41357;52.806;18.268;2024-02-23T00:50:29;13.32;;;5.85;;
55497;SDS011;41357;52.806;18.268;2024-02-23T00:52:55;8.10;;;4.85;;
55497;SDS011;41357;52.806;18.268;2024-02-23T00:55:22;11.27;;;6.40;;
55497;SDS011;41357;52.806;18.268;2024-02-23T00:57:50;13.93;;;7.03;;
55497;SDS011;41357;52.806;18.268;2024-02-23T01:00:16;14.13;;;6.45;;
55497;SDS011;41357;52.806;18.268;2024-02-23T01:02:42;12.50;;;5.95;;
55497;SDS011;41357;52.806;18.268;2024-02-23T01:05:09;15.23;;;6.43;;
55497;SDS011;41357;52.806;18.268;2024-02-23T01:07:35;11.10;;;5.72;;
55497;SDS011;41357;52.806;18.268;2024-02-23T01:10:01;11.10;;;6.65;;
55497;SDS011;41357;52.806;18.268;2024-02-23T01:12:28;15.13;;;7.07;;
55497;SDS011;41357;52.806;18.268;2024-02-23T01:14:55;8.88;;;5.10;;
55497;SDS011;41357;52.806;18.268;2024-02-23T01:17:21;14.68;;;6.68;;
55497;SDS011;41357;52.806;18.268;2024-02-23T01:19:47;12.35;;;6.50;;
55497;SDS011;41357;52.806;18.268;2024-02-23T01:22:14;13.75;;;6.60;;
55497;SDS011;41357;52.806;18.268;2024-02-23T01:24:40;11.95;;;6.50;;
55497;SDS011;41357;52.806;18.268;2024-02-23T01:27:07;11.63;;;6.15;;
55497;SDS011;41357;52.806;18.268;2024-02-23T01:29:33;14.52;;;6.43;;
55497;SDS011;41357;52.806;18.268;2024-02-23T01:31:59;15.48;;;6.50;;
55497;SDS011;41357;52.806;18.268;2024-02-23T01:34:26;10.10;;;5.90;;
55497;SDS011;41357;52.806;18.268;2024-02-23T01:36:52;15.88;;;6.65;;
55497;SDS011;41357;52.806;18.268;2024-02-23T01:39:18;14.27;;;6.78;;
55497;SDS011;41357;52.806;18.268;2024-02-23T01:41:45;11.82;;;5.50;;
55497;SDS011;41357;52.806;18.268;2024-02-23T01:44:11;9.98;;;5.22;;
55497;SDS011;41357;52.806;18.268;2024-02-23T01:46:37;10.88;;;5.15;;
55497;SDS011;41357;52.806;18.268;2024-02-23T01:49:03;10.10;;;5.15;;
55497;SDS011;41357;52.806;18.268;2024-02-23T01:51:31;11.23;;;6.68;;
55497;SDS011;41357;52.806;18.268;2024-02-23T01:53:57;12.52;;;6.25;;
55497;SDS011;41357;52.806;18.268;2024-02-23T01:56:23;13.45;;;6.13;;
55497;SDS011;41357;52.806;18.268;2024-02-23T01:58:50;9.68;;;5.22;;
55497;SDS011;41357;52.806;18.268;2024-02-23T02:01:17;12.73;;;6.72;;
55497;SDS011;41357;52.806;18.268;2024-02-23T02:03:43;8.65;;;5.25;;
55497;SDS011;41357;52.806;18.268;2024-02-23T02:06:10;12.15;;;5.78;;
55497;SDS011;41357;52.806;18.268;2024-02-23T02:08:36;13.10;;;6.65;;
55497;SDS011;41357;52.806;18.268;2024-02-23T02:11:03;10.15;;;5.82;;
55497;SDS011;41357;52.806;18.268;2024-02-23T02:13:29;8.45;;;5.47;;
55497;SDS011;41357;52.806;18.268;2024-02-23T02:15:55;11.00;;;5.20;;
55497;SDS011;41357;52.806;18.268;2024-02-23T02:18:22;12.02;;;7.03;;
55497;SDS011;41357;52.806;18.268;2024-02-23T02:20:51;9.07;;;5.65;;
55497;SDS011;41357;52.806;18.268;2024-02-23T02:23:18;12.18;;;5.40;;
55497;SDS011;41357;52.806;18.268;2024-02-23T02:25:44;9.18;;;4.93;;
55497;SDS011;41357;52.806;18.268;2024-02-23T02:28:10;14.02;;;5.78;;
55497;SDS011;41357;52.806;18.268;2024-02-23T02:30:37;11.18;;;6.68;;
55497;SDS011;41357;52.806;18.268;2024-02-23T02:33:03;7.13;;;4.85;;
55497;SDS011;41357;52.806;18.268;2024-02-23T02:35:29;7.43;;;4.88;;
55497;SDS011;41357;52.806;18.268;2024-02-23T02:37:56;11.02;;;5.93;;
55497;SDS011;41357;52.806;18.268;2024-02-23T02:40:22;12.57;;;6.15;;
55497;SDS011;41357;52.806;18.268;2024-02-23T02:42:48;9.82;;;4.85;;
55497;SDS011;41357;52.806;18.268;2024-02-23T02:45:14;9.75;;;4.80;;
55497;SDS011;41357;52.806;18.268;2024-02-23T02:47:41;9.55;;;5.53;;
55497;SDS011;41357;52.806;18.268;2024-02-23T02:50:07;9.63;;;5.18;;
55497;SDS011;41357;52.806;18.268;2024-02-23T02:52:34;8.15;;;5.10;;
55497;SDS011;41357;52.806;18.268;2024-02-23T02:55:00;9.88;;;4.93;;
55497;SDS011;41357;52.806;18.268;2024-02-23T02:57:26;9.70;;;6.03;;
55497;SDS011;41357;52.806;18.268;2024-02-23T02:59:53;13.02;;;5.93;;
55497;SDS011;41357;52.806;18.268;2024-02-23T03:02:19;10.40;;;4.63;;
55497;SDS011;41357;52.806;18.268;2024-02-23T03:04:48;10.82;;;6.22;;
55497;SDS011;41357;52.806;18.268;2024-02-23T03:07:15;10.75;;;5.18;;
55497;SDS011;41357;52.806;18.268;2024-02-23T03:09:41;9.73;;;5.63;;
55497;SDS011;41357;52.806;18.268;2024-02-23T03:12:08;10.25;;;5.80;;
55497;SDS011;41357;52.806;18.268;2024-02-23T03:14:34;10.65;;;6.32;;
55497;SDS011;41357;52.806;18.268;2024-02-23T03:17:02;9.27;;;4.43;;
55497;SDS011;41357;52.806;18.268;2024-02-23T03:19:29;8.73;;;5.35;;
55497;SDS011;41357;52.806;18.268;2024-02-23T03:21:55;11.07;;;4.93;;
55497;SDS011;41357;52.806;18.268;2024-02-23T03:24:21;11.75;;;5.53;;
55497;SDS011;41357;52.806;18.268;2024-02-23T03:26:48;12.50;;;5.90;;
55497;SDS011;41357;52.806;18.268;2024-02-23T03:29:14;8.65;;;3.75;;
55497;SDS011;41357;52.806;18.268;2024-02-23T03:31:41;11.50;;;4.78;;
55497;SDS011;41357;52.806;18.268;2024-02-23T03:34:07;12.02;;;5.65;;
55497;SDS011;41357;52.806;18.268;2024-02-23T03:36:34;21.00;;;8.27;;
55497;SDS011;41357;52.806;18.268;2024-02-23T03:39:01;10.98;;;5.57;;
55497;SDS011;41357;52.806;18.268;2024-02-23T03:41:27;6.50;;;4.20;;
55497;SDS011;41357;52.806;18.268;2024-02-23T03:43:53;9.48;;;5.40;;
55497;SDS011;41357;52.806;18.268;2024-02-23T03:46:19;12.60;;;6.40;;
55497;SDS011;41357;52.806;18.268;2024-02-23T03:48:47;9.65;;;5.75;;
55497;SDS011;41357;52.806;18.268;2024-02-23T03:51:13;11.65;;;6.22;;
55497;SDS011;41357;52.806;18.268;2024-02-23T03:53:39;7.93;;;4.25;;
55497;SDS011;41357;52.806;18.268;2024-02-23T03:56:05;6.93;;;3.95;;
55497;SDS011;41357;52.806;18.268;2024-02-23T03:58:32;6.55;;;3.85;;
55497;SDS011;41357;52.806;18.268;2024-02-23T04:00:58;8.18;;;4.75;;
55497;SDS011;41357;52.806;18.268;2024-02-23T04:03:24;8.55;;;4.50;;
55497;SDS011;41357;52.806;18.268;2024-02-23T04:05:50;10.13;;;4.57;;
55497;SDS011;41357;52.806;18.268;2024-02-23T04:08:16;8.90;;;5.03;;
55497;SDS011;41357;52.806;18.268;2024-02-23T04:10:42;9.20;;;5.32;;
55497;SDS011;41357;52.806;18.268;2024-02-23T04:13:08;10.20;;;5.72;;
55497;SDS011;41357;52.806;18.268;2024-02-23T04:15:39;13.15;;;7.18;;
55497;SDS011;41357;52.806;18.268;2024-02-23T04:18:05;15.75;;;7.47;;
55497;SDS011;41357;52.806;18.268;2024-02-23T04:20:32;12.70;;;7.65;;
55497;SDS011;41357;52.806;18.268;2024-02-23T04:22:58;13.75;;;8.38;;
55497;SDS011;41357;52.806;18.268;2024-02-23T04:25:25;11.20;;;6.20;;
55497;SDS011;41357;52.806;18.268;2024-02-23T04:27:51;17.27;;;9.70;;
55497;SDS011;41357;52.806;18.268;2024-02-23T04:30:17;15.38;;;9.73;;
55497;SDS011;41357;52.806;18.268;2024-02-23T04:32:43;15.25;;;9.25;;
55497;SDS011;41357;52.806;18.268;2024-02-23T04:35:09;18.27;;;11.02;;
55497;SDS011;41357;52.806;18.268;2024-02-23T04:37:35;16.27;;;9.45;;
55497;SDS011;41357;52.806;18.268;2024-02-23T04:40:02;16.38;;;9.82;;
55497;SDS011;41357;52.806;18.268;2024-02-23T04:42:29;19.50;;;11.60;;
55497;SDS011;41357;52.806;18.268;2024-02-23T04:44:55;16.90;;;10.55;;
55497;SDS011;41357;52.806;18.268;2024-02-23T04:47:21;17.88;;;12.15;;
55497;SDS011;41357;52.806;18.268;2024-02-23T04:49:47;18.15;;;10.65;;
55497;SDS011;41357;52.806;18.268;2024-02-23T04:52:14;15.23;;;9.75;;
55497;SDS011;41357;52.806;18.268;2024-02-23T04:54:41;16.75;;;10.68;;
55497;SDS011;41357;52.806;18.268;2024-02-23T04:57:07;18.10;;;11.10;;
55497;SDS011;41357;52.806;18.268;2024-02-23T04:59:34;15.32;;;9.48;;
55497;SDS011;41357;52.806;18.268;2024-02-23T05:02:00;19.05;;;11.40;;
55497;SDS011;41357;52.806;18.268;2024-02-23T05:04:26;17.65;;;10.77;;
55497;SDS011;41357;52.806;18.268;2024-02-23T05:06:53;19.23;;;13.13;;
55497;SDS011;41357;52.806;18.268;2024-02-23T05:09:19;16.42;;;10.77;;
55497;SDS011;41357;52.806;18.268;2024-02-23T05:11:45;21.20;;;9.40;;
55497;SDS011;41357;52.806;18.268;2024-02-23T05:14:12;32.97;;;14.70;;
55497;SDS011;41357;52.806;18.268;2024-02-23T05:16:38;36.50;;;12.15;;
55497;SDS011;41357;52.806;18.268;2024-02-23T05:19:04;17.80;;;8.65;;
55497;SDS011;41357;52.806;18.268;2024-02-23T05:21:30;11.15;;;5.93;;
55497;SDS011;41357;52.806;18.268;2024-02-23T05:23:57;10.57;;;5.05;;
55497;SDS011;41357;52.806;18.268;2024-02-23T05:26:23;16.25;;;7.00;;
55497;SDS011;41357;52.806;18.268;2024-02-23T05:28:49;6.65;;;3.08;;
55497;SDS011;41357;52.806;18.268;2024-02-23T05:31:15;5.10;;;2.20;;
55497;SDS011;41357;52.806;18.268;2024-02-23T05:33:42;4.40;;;1.95;;
55497;SDS011;41357;52.806;18.268;2024-02-23T05:36:08;5.40;;;3.00;;
55497;SDS011;41357;52.806;18.268;2024-02-23T05:38:34;5.15;;;2.38;;
55497;SDS011;41357;52.806;18.268;2024-02-23T05:41:00;6.07;;;2.80;;
55497;SDS011;41357;52.806;18.268;2024-02-23T05:43:26;4.47;;;2.42;;
55497;SDS011;41357;52.806;18.268;2024-02-23T05:45:53;5.20;;;3.10;;
55497;SDS011;41357;52.806;18.268;2024-02-23T05:48:22;4.03;;;2.15;;
55497;SDS011;41357;52.806;18.268;2024-02-23T05:50:48;3.83;;;1.90;;
55497;SDS011;41357;52.806;18.268;2024-02-23T05:53:14;3.17;;;1.73;;
55497;SDS011;41357;52.806;18.268;2024-02-23T05:55:40;2.20;;;1.48;;
55497;SDS011;41357;52.806;18.268;2024-02-23T05:58:07;4.32;;;1.40;;
55497;SDS011;41357;52.806;18.268;2024-02-23T06:00:34;2.50;;;1.60;;
55497;SDS011;41357;52.806;18.268;2024-02-23T06:03:00;3.60;;;1.40;;
55497;SDS011;41357;52.806;18.268;2024-02-23T06:05:27;2.92;;;1.30;;
55497;SDS011;41357;52.806;18.268;2024-02-23T06:07:54;3.42;;;1.70;;
55497;SDS011;41357;52.806;18.268;2024-02-23T06:10:20;4.13;;;1.20;;
55497;SDS011;41357;52.806;18.268;2024-02-23T06:12:46;3.80;;;1.67;;
55497;SDS011;41357;52.806;18.268;2024-02-23T06:15:12;3.60;;;1.73;;
55497;SDS011;41357;52.806;18.268;2024-02-23T06:17:38;2.92;;;1.65;;
55497;SDS011;41357;52.806;18.268;2024-02-23T06:20:05;7.30;;;2.63;;
55497;SDS011;41357;52.806;18.268;2024-02-23T06:22:33;4.80;;;1.85;;
55497;SDS011;41357;52.806;18.268;2024-02-23T06:24:59;4.53;;;2.00;;
55497;SDS011;41357;52.806;18.268;2024-02-23T06:27:25;3.60;;;1.25;;
55497;SDS011;41357;52.806;18.268;2024-02-23T06:29:52;3.03;;;1.67;;
55497;SDS011;41357;52.806;18.268;2024-02-23T06:32:19;5.00;;;1.60;;
55497;SDS011;41357;52.806;18.268;2024-02-23T06:34:45;3.35;;;1.70;;
55497;SDS011;41357;52.806;18.268;2024-02-23T06:37:11;3.15;;;1.70;;
55497;SDS011;41357;52.806;18.268;2024-02-23T06:39:39;3.90;;;2.20;;
55497;SDS011;41357;52.806;18.268;2024-02-23T06:42:05;4.32;;;2.20;;
55497;SDS011;41357;52.806;18.268;2024-02-23T06:44:31;3.20;;;1.52;;
55497;SDS011;41357;52.806;18.268;2024-02-23T06:46:57;4.78;;;1.90;;
55497;SDS011;41357;52.806;18.268;2024-02-23T06:49:23;3.00;;;1.55;;
55497;SDS011;41357;52.806;18.268;2024-02-23T06:51:49;2.65;;;1.50;;
55497;SDS011;41357;52.806;18.268;2024-02-23T06:54:15;2.33;;;1.45;;
55497;SDS011;41357;52.806;18.268;2024-02-23T06:56:43;2.90;;;1.73;;
55497;SDS011;41357;52.806;18.268;2024-02-23T06:59:10;2.97;;;1.77;;
55497;SDS011;41357;52.806;18.268;2024-02-23T07:01:47;2.97;;;1.67;;
55497;SDS011;41357;52.806;18.268;2024-02-23T07:04:13;2.10;;;1.40;;
55497;SDS011;41357;52.806;18.268;2024-02-23T07:06:39;3.13;;;1.70;;
55497;SDS011;41357;52.806;18.268;2024-02-23T07:09:05;3.80;;;2.08;;
55497;SDS011;41357;52.806;18.268;2024-02-23T07:11:31;3.33;;;1.75;;
55497;SDS011;41357;52.806;18.268;2024-02-23T07:13:57;5.38;;;1.45;;
55497;SDS011;41357;52.806;18.268;2024-02-23T07:16:23;2.50;;;1.40;;
55497;SDS011;41357;52.806;18.268;2024-02-23T07:18:50;5.40;;;2.13;;
55497;SDS011;41357;52.806;18.268;2024-02-23T07:21:19;6.93;;;3.10;;
55497;SDS011;41357;52.806;18.268;2024-02-23T07:23:45;6.00;;;2.10;;
55497;SDS011;41357;52.806;18.268;2024-02-23T07:26:11;38.00;;;8.88;;
55497;SDS011;41357;52.806;18.268;2024-02-23T07:28:37;16.45;;;4.65;;
55497;SDS011;41357;52.806;18.268;2024-02-23T07:31:03;8.55;;;3.00;;
55497;SDS011;41357;52.806;18.268;2024-02-23T07:33:29;17.15;;;5.88;;
55497;SDS011;41357;52.806;18.268;2024-02-23T07:35:55;13.00;;;4.63;;
55497;SDS011;41357;52.806;18.268;2024-02-23T07:38:22;34.15;;;9.55;;
55497;SDS011;41357;52.806;18.268;2024-02-23T07:40:48;8.07;;;3.10;;
55497;SDS011;41357;52.806;18.268;2024-02-23T07:43:14;13.48;;;5.18;;
55497;SDS011;41357;52.806;18.268;2024-02-23T07:45:40;9.95;;;4.00;;
55497;SDS011;41357;52.806;18.268;2024-02-23T07:48:07;14.45;;;7.15;;
55497;SDS011;41357;52.806;18.268;2024-02-23T07:50:33;8.63;;;3.70;;
55497;SDS011;41357;52.806;18.268;2024-02-23T07:53:00;5.38;;;2.58;;
55497;SDS011;41357;52.806;18.268;2024-02-23T07:55:26;4.13;;;1.65;;
55497;SDS011;41357;52.806;18.268;2024-02-23T07:57:52;6.95;;;2.22;;
55497;SDS011;41357;52.806;18.268;2024-02-23T08:00:22;3.90;;;2.20;;
55497;SDS011;41357;52.806;18.268;2024-02-23T08:02:48;7.78;;;2.15;;
55497;SDS011;41357;52.806;18.268;2024-02-23T08:05:14;3.28;;;1.55;;
55497;SDS011;41357;52.806;18.268;2024-02-23T08:07:41;3.40;;;1.42;;
55497;SDS011;41357;52.806;18.268;2024-02-23T08:10:07;6.75;;;1.70;;
55497;SDS011;41357;52.806;18.268;2024-02-23T08:12:34;3.03;;;1.05;;
55497;SDS011;41357;52.806;18.268;2024-02-23T08:15:00;7.05;;;1.77;;
55497;SDS011;41357;52.806;18.268;2024-02-23T08:17:26;4.28;;;1.45;;
55497;SDS011;41357;52.806;18.268;2024-02-23T08:19:52;2.35;;;1.08;;
55497;SDS011;41357;52.806;18.268;2024-02-23T08:22:19;2.25;;;0.88;;
55497;SDS011;41357;52.806;18.268;2024-02-23T08:24:45;2.60;;;0.85;;
55497;SDS011;41357;52.806;18.268;2024-02-23T08:27:11;1.15;;;0.70;;
55497;SDS011;41357;52.806;18.268;2024-02-23T08:29:38;4.07;;;1.33;;
55497;SDS011;41357;52.806;18.268;2024-02-23T08:32:04;1.90;;;1.02;;
55497;SDS011;41357;52.806;18.268;2024-02-23T08:34:30;9.95;;;2.90;;
55497;SDS011;41357;52.806;18.268;2024-02-23T08:36:56;5.50;;;1.98;;
55497;SDS011;41357;52.806;18.268;2024-02-23T08:39:22;7.10;;;2.20;;
55497;SDS011;41357;52.806;18.268;2024-02-23T08:41:49;3.83;;;1.58;;
55497;SDS011;41357;52.806;18.268;2024-02-23T08:44:16;12.48;;;3.00;;
55497;SDS011;41357;52.806;18.268;2024-02-23T08:46:42;6.63;;;2.63;;
55497;SDS011;41357;52.806;18.268;2024-02-23T08:49:09;7.90;;;2.17;;
55497;SDS011;41357;52.806;18.268;2024-02-23T08:51:35;6.20;;;2.35;;
55497;SDS011;41357;52.806;18.268;2024-02-23T08:54:01;5.80;;;1.95;;
55497;SDS011;41357;52.806;18.268;2024-02-23T08:56:29;3.53;;;1.98;;
55497;SDS011;41357;52.806;18.268;2024-02-23T08:58:57;5.53;;;1.90;;
55497;SDS011;41357;52.806;18.268;2024-02-23T09:01:23;17.63;;;10.60;;
55497;SDS011;41357;52.806;18.268;2024-02-23T09:03:49;34.08;;;20.17;;
55497;SDS011;41357;52.806;18.268;2024-02-23T09:06:15;25.27;;;13.57;;
55497;SDS011;41357;52.806;18.268;2024-02-23T09:08:42;11.02;;;5.00;;
55497;SDS011;41357;52.806;18.268;2024-02-23T09:11:08;10.27;;;3.80;;
55497;SDS011;41357;52.806;18.268;2024-02-23T09:13:36;10.65;;;4.25;;
55497;SDS011;41357;52.806;18.268;2024-02-23T09:16:02;7.80;;;2.30;;
55497;SDS011;41357;52.806;18.268;2024-02-23T09:18:29;4.40;;;1.80;;
55497;SDS011;41357;52.806;18.268;2024-02-23T09:20:55;8.00;;;2.00;;
55497;SDS011;41357;52.806;18.268;2024-02-23T09:23:21;6.25;;;2.22;;
55497;SDS011;41357;52.806;18.268;2024-02-23T09:25:47;6.43;;;1.98;;
55497;SDS011;41357;52.806;18.268;2024-02-23T09:28:13;8.70;;;2.20;;
55497;SDS011;41357;52.806;18.268;2024-02-23T09:30:40;5.45;;;1.80;;
55497;SDS011;41357;52.806;18.268;2024-02-23T09:33:06;5.40;;;2.00;;
55497;SDS011;41357;52.806;18.268;2024-02-23T09:35:33;6.00;;;2.35;;
55497;SDS011;41357;52.806;18.268;2024-02-23T09:37:59;7.15;;;1.77;;
55497;SDS011;41357;52.806;18.268;2024-02-23T09:40:25;5.18;;;1.92;;
55497;SDS011;41357;52.806;18.268;2024-02-23T09:42:56;6.72;;;1.77;;
55497;SDS011;41357;52.806;18.268;2024-02-23T09:45:22;11.60;;;2.45;;
55497;SDS011;41357;52.806;18.268;2024-02-23T09:47:49;4.20;;;1.77;;
55497;SDS011;41357;52.806;18.268;2024-02-23T09:50:15;7.45;;;1.90;;
55497;SDS011;41357;52.806;18.268;2024-02-23T09:52:44;7.47;;;1.63;;
55497;SDS011;41357;52.806;18.268;2024-02-23T09:55:11;6.40;;;1.63;;
55497;SDS011;41357;52.806;18.268;2024-02-23T09:57:38;6.90;;;3.00;;
55497;SDS011;41357;52.806;18.268;2024-02-23T10:00:04;3.58;;;1.77;;
55497;SDS011;41357;52.806;18.268;2024-02-23T10:02:31;2.55;;;1.42;;
55497;SDS011;41357;52.806;18.268;2024-02-23T10:04:58;2.85;;;1.05;;
55497;SDS011;41357;52.806;18.268;2024-02-23T10:07:25;2.97;;;1.17;;
55497;SDS011;41357;52.806;18.268;2024-02-23T10:09:52;3.78;;;1.58;;
55497;SDS011;41357;52.806;18.268;2024-02-23T10:12:20;7.43;;;1.45;;
55497;SDS011;41357;52.806;18.268;2024-02-23T10:14:46;3.90;;;1.23;;
55497;SDS011;41357;52.806;18.268;2024-02-23T10:17:13;3.78;;;1.23;;
55497;SDS011;41357;52.806;18.268;2024-02-23T10:19:39;5.57;;;1.80;;
55497;SDS011;41357;52.806;18.268;2024-02-23T10:22:05;3.30;;;1.08;;
55497;SDS011;41357;52.806;18.268;2024-02-23T10:24:31;5.35;;;1.73;;
55497;SDS011;41357;52.806;18.268;2024-02-23T10:26:58;3.17;;;1.17;;
55497;SDS011;41357;52.806;18.268;2024-02-23T10:29:25;5.80;;;1.35;;
55497;SDS011;41357;52.806;18.268;2024-02-23T10:31:51;2.10;;;0.98;;
55497;SDS011;41357;52.806;18.268;2024-02-23T10:34:18;2.00;;;0.60;;
55497;SDS011;41357;52.806;18.268;2024-02-23T10:36:45;0.65;;;0.30;;
55497;SDS011;41357;52.806;18.268;2024-02-23T10:39:15;2.85;;;0.82;;
55497;SDS011;41357;52.806;18.268;2024-02-23T10:41:44;2.10;;;0.63;;
55497;SDS011;41357;52.806;18.268;2024-02-23T10:44:13;1.40;;;0.47;;
55497;SDS011;41357;52.806;18.268;2024-02-23T10:46:41;3.50;;;0.63;;
55497;SDS011;41357;52.806;18.268;2024-02-23T10:49:07;2.85;;;0.65;;
55497;SDS011;41357;52.806;18.268;2024-02-23T10:51:34;3.83;;;1.30;;
55497;SDS011;41357;52.806;18.268;2024-02-23T10:54:02;2.03;;;0.63;;
55497;SDS011;41357;52.806;18.268;2024-02-23T10:56:28;1.13;;;0.50;;
55497;SDS011;41357;52.806;18.268;2024-02-23T10:58:55;4.20;;;1.20;;
55497;SDS011;41357;52.806;18.268;2024-02-23T11:01:21;4.45;;;1.60;;
55497;SDS011;41357;52.806;18.268;2024-02-23T11:03:48;2.38;;;0.90;;
55497;SDS011;41357;52.806;18.268;2024-02-23T11:06:16;1.38;;;0.60;;
55497;SDS011;41357;52.806;18.268;2024-02-23T11:08:49;1.27;;;0.50;;
55497;SDS011;41357;52.806;18.268;2024-02-23T11:11:18;5.45;;;1.33;;
55497;SDS011;41357;52.806;18.268;2024-02-23T11:13:45;3.58;;;1.02;;
55497;SDS011;41357;52.806;18.268;2024-02-23T11:16:12;3.15;;;1.13;;
55497;SDS011;41357;52.806;18.268;2024-02-23T11:18:46;1.45;;;0.70;;
55497;SDS011;41357;52.806;18.268;2024-02-23T11:21:12;4.55;;;0.57;;
55497;SDS011;41357;52.806;18.268;2024-02-23T11:26:11;1.95;;;0.70;;
55497;SDS011;41357;52.806;18.268;2024-02-23T11:28:56;3.90;;;1.27;;
55497;SDS011;41357;52.806;18.268;2024-02-23T11:31:23;1.50;;;0.73;;
55497;SDS011;41357;52.806;18.268;2024-02-23T11:33:50;5.38;;;0.90;;
55497;SDS011;41357;52.806;18.268;2024-02-23T11:38:57;2.20;;;1.00;;
55497;SDS011;41357;52.806;18.268;2024-02-23T11:41:24;2.13;;;1.23;;
55497;SDS011;41357;52.806;18.268;2024-02-23T11:43:51;3.47;;;1.10;;
55497;SDS011;41357;52.806;18.268;2024-02-23T11:46:18;1.90;;;0.70;;
55497;SDS011;41357;52.806;18.268;2024-02-23T11:48:44;2.90;;;0.82;;
55497;SDS011;41357;52.806;18.268;2024-02-23T11:51:12;2.08;;;0.90;;
55497;SDS011;41357;52.806;18.268;2024-02-23T11:53:38;4.38;;;1.60;;
55497;SDS011;41357;52.806;18.268;2024-02-23T11:56:05;3.50;;;0.90;;
55497;SDS011;41357;52.806;18.268;2024-02-23T11:58:32;5.25;;;0.50;;
55497;SDS011;41357;52.806;18.268;2024-02-23T12:01:02;2.03;;;0.90;;
55497;SDS011;41357;52.806;18.268;2024-02-23T12:03:28;3.53;;;1.10;;
55497;SDS011;41357;52.806;18.268;2024-02-23T12:05:57;2.70;;;1.15;;
55497;SDS011;41357;52.806;18.268;2024-02-23T12:08:25;3.15;;;1.30;;
55497;SDS011;41357;52.806;18.268;2024-02-23T12:10:54;3.08;;;0.95;;
55497;SDS011;41357;52.806;18.268;2024-02-23T12:13:21;3.10;;;0.73;;
55497;SDS011;41357;52.806;18.268;2024-02-23T12:15:48;8.43;;;0.90;;
55497;SDS011;41357;52.806;18.268;2024-02-23T12:18:14;1.10;;;0.60;;
55497;SDS011;41357;52.806;18.268;2024-02-23T12:20:40;2.08;;;0.95;;
55497;SDS011;41357;52.806;18.268;2024-02-23T12:23:07;2.00;;;1.08;;
55497;SDS011;41357;52.806;18.268;2024-02-23T12:25:35;2.55;;;1.08;;
55497;SDS011;41357;52.806;18.268;2024-02-23T12:28:01;3.90;;;1.75;;
55497;SDS011;41357;52.806;18.268;2024-02-23T12:30:29;2.70;;;0.73;;
55497;SDS011;41357;52.806;18.268;2024-02-23T12:33:05;0.75;;;0.40;;
55497;SDS011;41357;52.806;18.268;2024-02-23T12:35:33;0.75;;;0.30;;
55497;SDS011;41357;52.806;18.268;2024-02-23T12:38:03;2.53;;;0.90;;
55497;SDS011;41357;52.806;18.268;2024-02-23T12:40:29;3.72;;;0.85;;
55497;SDS011;41357;52.806;18.268;2024-02-23T12:42:55;2.33;;;0.80;;
55497;SDS011;41357;52.806;18.268;2024-02-23T12:45:21;1.92;;;0.80;;
55497;SDS011;41357;52.806;18.268;2024-02-23T12:47:47;2.42;;;0.80;;
55497;SDS011;41357;52.806;18.268;2024-02-23T12:50:14;4.68;;;0.50;;
55497;SDS011;41357;52.806;18.268;2024-02-23T12:52:40;2.45;;;1.20;;
55497;SDS011;41357;52.806;18.268;2024-02-23T12:55:07;4.78;;;1.45;;
55497;SDS011;41357;52.806;18.268;2024-02-23T12:57:33;0.38;;;0.20;;
55497;SDS011;41357;52.806;18.268;2024-02-23T12:59:59;1.35;;;0.50;;
55497;SDS011;41357;52.806;18.268;2024-02-23T13:02:25;0.93;;;0.25;;
55497;SDS011;41357;52.806;18.268;2024-02-23T13:04:51;1.83;;;0.50;;
55497;SDS011;41357;52.806;18.268;2024-02-23T13:07:18;0.93;;;0.50;;
55497;SDS011;41357;52.806;18.268;2024-02-23T13:09:44;0.75;;;0.25;;
55497;SDS011;41357;52.806;18.268;2024-02-23T13:12:10;1.60;;;0.47;;
55497;SDS011;41357;52.806;18.268;2024-02-23T13:14:36;2.80;;;0.30;;
55497;SDS011;41357;52.806;18.268;2024-02-23T13:17:03;1.13;;;0.40;;
55497;SDS011;41357;52.806;18.268;2024-02-23T13:19:29;1.75;;;0.68;;
55497;SDS011;41357;52.806;18.268;2024-02-23T13:21:55;2.10;;;0.65;;
55497;SDS011;41357;52.806;18.268;2024-02-23T13:24:21;1.80;;;0.80;;
55497;SDS011;41357;52.806;18.268;2024-02-23T13:26:48;2.35;;;0.70;;
55497;SDS011;41357;52.806;18.268;2024-02-23T13:29:14;2.45;;;0.68;;
55497;SDS011;41357;52.806;18.268;2024-02-23T13:31:40;2.53;;;0.50;;
55497;SDS011;41357;52.806;18.268;2024-02-23T13:34:07;2.00;;;0.40;;
55497;SDS011;41357;52.806;18.268;2024-02-23T13:36:34;2.97;;;1.00;;
55497;SDS011;41357;52.806;18.268;2024-02-23T13:39:00;2.47;;;0.80;;
55497;SDS011;41357;52.806;18.268;2024-02-23T13:41:27;3.15;;;1.15;;
55497;SDS011;41357;52.806;18.268;2024-02-23T13:43:53;6.13;;;2.45;;
55497;SDS011;41357;52.806;18.268;2024-02-23T13:46:19;8.55;;;3.42;;
55497;SDS011;41357;52.806;18.268;2024-02-23T13:48:45;12.43;;;4.65;;
55497;SDS011;41357;52.806;18.268;2024-02-23T13:51:11;8.05;;;2.67;;
55497;SDS011;41357;52.806;18.268;2024-02-23T13:53:37;7.45;;;3.42;;
55497;SDS011;41357;52.806;18.268;2024-02-23T13:56:04;4.95;;;1.98;;
55497;SDS011;41357;52.806;18.268;2024-02-23T13:58:31;5.07;;;2.00;;
55497;SDS011;41357;52.806;18.268;2024-02-23T14:00:58;3.85;;;1.63;;
55497;SDS011;41357;52.806;18.268;2024-02-23T14:03:24;4.75;;;1.52;;
55497;SDS011;41357;52.806;18.268;2024-02-23T14:05:50;3.53;;;1.20;;
55497;SDS011;41357;52.806;18.268;2024-02-23T14:08:16;14.52;;;2.00;;
55497;SDS011;41357;52.806;18.268;2024-02-23T14:10:42;4.18;;;1.10;;
55497;SDS011;41357;52.806;18.268;2024-02-23T14:13:09;7.32;;;1.17;;
55497;SDS011;41357;52.806;18.268;2024-02-23T14:15:35;1.88;;;0.98;;
55497;SDS011;41357;52.806;18.268;2024-02-23T14:18:01;4.55;;;1.52;;
55497;SDS011;41357;52.806;18.268;2024-02-23T14:20:27;6.50;;;1.60;;
55497;SDS011;41357;52.806;18.268;2024-02-23T14:22:53;4.28;;;1.95;;
55497;SDS011;41357;52.806;18.268;2024-02-23T14:25:19;3.15;;;1.02;;
55497;SDS011;41357;52.806;18.268;2024-02-23T14:27:46;4.95;;;1.75;;
55497;SDS011;41357;52.806;18.268;2024-02-23T14:30:13;3.60;;;1.50;;